Time;durP1;ratioP1;P1;durP2;ratioP2;P2;SDS_P1;SDS_P2;PMS_P1;PMS_P2;Temp;Humidity;BMP_temperature;BMP_pressure;BME280_temperature;BME280_humidity;BME280_pressure;Samples;Min_cycle;Max_cycle;Signal;HPM_P1;HPM_P2
2024/03/30 00:04:43;;;;;;;;;8.67;8.00;;;;;26.52;28.99;101189.31;244037;1180;58622;-65
2024/03/30 00:09:58;;;;;;;;;8.00;7.00;;;;;26.50;28.96;101192.75;244302;1178;58580;-65
2024/03/30 00:15:33;;;;;;;;;8.33;8.00;;;;;26.50;29.17;101190.85;243863;1187;92499;-64
2024/03/30 00:20:42;;;;;;;;;7.00;7.00;;;;;26.49;28.95;101188.88;244169;1177;91804;-65
2024/03/30 00:26:17;;;;;;;;;8.33;7.33;;;;;26.48;28.89;101194.21;244842;1180;93112;-65
2024/03/30 00:31:31;;;;;;;;;7.00;7.00;;;;;26.47;29.17;101190.90;244212;1180;91795;-65
2024/03/30 00:37:37;;;;;;;;;9.33;9.33;;;;;26.46;29.06;101195.33;245980;1177;91848;-65
2024/03/30 00:43:12;;;;;;;;;8.33;8.00;;;;;26.45;29.21;101202.88;244912;1177;93072;-65
2024/03/30 00:48:48;;;;;;;;;6.33;6.33;;;;;26.44;29.14;101206.50;244375;1177;92849;-65
2024/03/30 00:53:51;;;;;;;;;9.00;9.00;;;;;26.43;29.19;101204.08;244126;1180;92356;-65
2024/03/30 00:59:26;;;;;;;;;7.50;7.50;;;;;26.43;29.25;101198.71;244813;1176;58585;-64
2024/03/30 01:04:32;;;;;;;;;8.00;8.00;;;;;26.43;29.30;101204.16;244447;1176;92706;-65
2024/03/30 01:09:53;;;;;;;;;7.00;7.00;;;;;26.42;29.12;101207.55;244295;1181;92987;-65
2024/03/30 01:15:14;;;;;;;;;7.00;7.00;;;;;26.41;29.30;101203.08;244064;1182;93395;-64
2024/03/30 01:20:51;;;;;;;;;8.33;8.33;;;;;26.41;29.49;101196.54;244735;1182;91456;-65
2024/03/30 01:26:04;;;;;;;;;8.00;8.00;;;;;26.40;29.43;101195.42;244151;1177;91579;-65
2024/03/30 01:31:39;;;;;;;;;7.33;6.67;;;;;26.40;29.53;101197.98;244135;1183;91983;-65
2024/03/30 01:36:54;;;;;;;;;8.00;8.00;;;;;26.39;29.38;101195.34;244236;1183;93328;-65
2024/03/30 01:42:29;;;;;;;;;7.00;7.00;;;;;26.38;29.38;101200.79;243919;1183;92109;-64
2024/03/30 01:47:36;;;;;;;;;7.50;7.50;;;;;26.37;29.31;101205.70;243318;1184;92116;-65
2024/03/30 01:53:00;;;;;;;;;7.50;7.50;;;;;26.37;29.47;101208.38;243980;1179;93646;-65
2024/03/30 01:58:34;;;;;;;;;;;;;;;26.36;29.54;101206.05;243721;1183;93854;-65
2024/03/30 02:03:39;;;;;;;;;8.00;8.00;;;;;26.36;29.38;101203.74;243303;1180;92667;-65
2024/03/30 02:09:04;;;;;;;;;7.00;7.00;;;;;26.35;29.45;101193.46;244155;1182;92488;-65
2024/03/30 02:15:10;;;;;;;;;7.50;7.50;;;;;26.35;29.35;101199.70;244017;1184;93820;-65
2024/03/30 02:20:13;;;;;;;;;7.00;7.00;;;;;26.34;29.29;101196.51;243406;1177;93022;-65
2024/03/30 02:25:28;;;;;;;;;8.00;8.00;;;;;26.32;29.52;101196.08;242604;1182;58599;-65
2024/03/30 02:31:04;;;;;;;;;9.00;8.00;;;;;26.32;29.51;101198.78;243774;1182;92335;-65
2024/03/30 02:36:19;;;;;;;;;8.00;8.00;;;;;26.32;29.63;101186.59;243668;1184;91622;-65
2024/03/30 02:42:26;;;;;;;;;7.00;7.00;;;;;26.32;29.52;101178.85;243583;1183;92637;-65
2024/03/30 02:47:29;;;;;;;;;7.25;7.25;;;;;26.30;29.56;101190.16;243606;1184;93518;-64
2024/03/30 02:52:32;;;;;;;;;8.00;8.00;;;;;26.31;29.56;101199.27;243373;1177;58549;-65
2024/03/30 02:57:45;;;;;;;;;9.50;9.50;;;;;26.30;29.63;101197.33;243594;1181;58491;-65
2024/03/30 03:03:10;;;;;;;;;7.00;7.00;;;;;26.30;29.67;101198.13;243493;1183;92771;-64
2024/03/30 03:08:45;;;;;;;;;9.00;9.00;;;;;26.29;29.45;101194.23;244073;1180;93261;-65
2024/03/30 03:14:06;;;;;;;;;7.50;7.50;;;;;26.28;29.69;101200.41;243695;1178;92487;-65
2024/03/30 03:19:41;;;;;;;;;9.50;8.00;;;;;26.28;29.76;101212.89;243952;1183;92918;-65
2024/03/30 03:25:02;;;;;;;;;10.00;8.00;;;;;26.27;29.71;101209.16;243742;1183;93383;-64
2024/03/30 03:31:10;;;;;;;;;7.00;7.00;;;;;26.26;29.66;101205.28;243800;1183;92721;-65
2024/03/30 03:36:12;;;;;;;;;7.50;7.50;;;;;26.26;29.68;101200.19;243457;1183;91748;-65
2024/03/30 03:41:15;;;;;;;;;8.33;8.33;;;;;26.25;29.77;101201.70;244164;1181;58524;-64
2024/03/30 03:46:25;;;;;;;;;9.00;8.00;;;;;26.25;29.62;101202.14;244481;1177;58356;-65
2024/03/30 03:51:46;;;;;;;;;8.00;8.00;;;;;26.24;29.93;101200.36;244542;1182;92463;-65
2024/03/30 03:57:21;;;;;;;;;8.67;8.67;;;;;26.24;29.80;101203.58;244378;1177;92756;-65
2024/03/30 04:02:33;;;;;;;;;10.00;8.00;;;;;26.23;29.78;101205.06;243928;1180;91994;-65
2024/03/30 04:08:50;;;;;;;;;7.50;7.50;;;;;26.23;29.66;101208.48;244683;1180;92072;-65
2024/03/30 04:13:53;;;;;;;;;8.67;8.67;;;;;26.22;29.80;101208.76;243731;1177;93292;-66
2024/03/30 04:18:55;;;;;;;;;9.00;9.00;;;;;26.21;29.77;101207.25;243870;1177;58567;-63
2024/03/30 04:24:22;;;;;;;;;9.00;8.00;;;;;26.20;29.68;101210.08;244652;1181;58520;-65
2024/03/30 04:29:43;;;;;;;;;9.00;9.00;;;;;26.20;29.90;101218.52;244456;1176;93219;-65
2024/03/30 04:35:18;;;;;;;;;8.50;8.50;;;;;26.21;29.79;101220.30;243909;1177;92144;-65
2024/03/30 04:40:29;;;;;;;;;9.00;9.00;;;;;26.20;29.61;101214.70;244322;1177;92508;-64
2024/03/30 04:46:04;;;;;;;;;8.00;8.00;;;;;26.20;29.62;101217.77;244689;1180;93172;-65
2024/03/30 04:51:22;;;;;;;;;8.67;8.67;;;;;26.21;29.61;101217.23;243749;1180;92639;-65
2024/03/30 04:56:57;;;;;;;;;8.00;8.00;;;;;26.22;29.65;101217.20;244802;1180;92833;-65
2024/03/30 05:02:13;;;;;;;;;9.50;8.00;;;;;26.21;29.54;101222.98;243841;1180;93016;-65
2024/03/30 05:07:48;;;;;;;;;9.50;9.50;;;;;26.21;29.78;101224.80;244818;1180;91744;-65
2024/03/30 05:12:57;;;;;;;;;7.33;7.33;;;;;26.23;29.68;101233.73;243737;1180;92525;-65
2024/03/30 05:18:32;;;;;;;;;8.00;8.00;;;;;26.23;29.53;101234.17;244627;1180;93076;-65
2024/03/30 05:23:49;;;;;;;;;10.00;8.00;;;;;26.26;29.67;101235.96;244075;1180;92504;-65
2024/03/30 05:29:24;;;;;;;;;10.00;10.00;;;;;26.42;29.52;101235.90;244405;1180;92692;-65
2024/03/30 05:34:36;;;;;;;;;9.00;9.00;;;;;26.69;29.03;101230.23;244187;1182;92766;-65
2024/03/30 05:40:11;;;;;;;;;7.00;7.00;;;;;26.93;28.60;101232.42;244042;1177;93272;-64
2024/03/30 05:45:23;;;;;;;;;10.50;10.50;;;;;27.19;28.45;101232.69;243334;1181;92239;-65
2024/03/30 05:56:44;;;;;;;;;9.50;9.50;;;;;27.56;27.86;101227.10;244274;1180;93312;-64
2024/03/30 06:01:54;;;;;;;;;9.00;8.00;;;;;27.68;27.77;101224.98;243864;1177;58416;-65
2024/03/30 06:07:21;;;;;;;;;11.00;8.50;;;;;27.77;27.64;101218.76;244775;1180;91815;-65
2024/03/30 06:12:57;;;;;;;;;10.00;10.00;;;;;27.86;27.63;101216.09;244817;1180;92019;-65
2024/03/30 06:18:07;;;;;;;;;8.00;8.00;;;;;27.93;27.40;101213.10;244470;1180;92802;-65
2024/03/30 06:23:42;;;;;;;;;10.00;10.00;;;;;28.00;27.29;101215.70;244321;1180;93815;-65
2024/03/30 06:28:57;;;;;;;;;9.00;9.00;;;;;28.07;27.27;101210.17;244178;1180;92815;-65
2024/03/30 06:34:32;;;;;;;;;10.33;10.33;;;;;28.14;27.15;101211.58;244719;1180;91606;-65
2024/03/30 06:45:21;;;;;;;;;12.00;12.00;;;;;28.27;27.08;101212.59;243267;1177;92586;-65
2024/03/30 06:50:48;;;;;;;;;13.00;12.00;;;;;28.32;26.86;101213.67;244261;1180;92400;-65
2024/03/30 06:56:23;;;;;;;;;11.33;10.67;;;;;28.37;26.94;101218.48;244560;1177;93410;-65
2024/03/30 07:01:27;;;;;;;;;9.25;9.25;;;;;28.42;26.96;101221.30;246165;1180;93312;-65
2024/03/30 07:06:30;;;;;;;;;12.00;11.00;;;;;28.46;26.79;101219.46;245966;1177;92529;-65
2024/03/30 07:11:33;;;;;;;;;8.25;8.25;;;;;28.50;26.80;101216.39;245954;1186;58697;-66
2024/03/30 07:16:36;;;;;;;;;9.33;9.33;;;;;28.53;26.64;101211.23;245948;1177;58363;-65
2024/03/30 07:21:59;;;;;;;;;8.00;8.00;;;;;28.58;26.68;101204.68;245982;1177;92414;-65
2024/03/30 07:27:02;;;;;;;;;11.00;10.33;;;;;28.62;26.79;101203.54;246005;1177;58303;-65
2024/03/30 07:32:05;;;;;;;;;11.00;9.25;;;;;28.65;26.73;101210.52;245941;1180;58318;-65
2024/03/30 07:37:08;;;;;;;;;10.00;10.00;;;;;28.68;26.72;101218.02;245969;1177;58519;-65
2024/03/30 07:42:11;;;;;;;;;10.00;9.00;;;;;28.71;26.72;101213.11;245999;1180;58301;-65
2024/03/30 07:47:14;;;;;;;;;10.33;8.33;;;;;28.74;26.59;101215.54;245873;1180;58528;-65
2024/03/30 07:52:17;;;;;;;;;11.67;11.67;;;;;28.77;26.48;101213.81;245897;1177;58735;-65
2024/03/30 07:57:20;;;;;;;;;11.25;11.25;;;;;28.81;26.55;101219.39;245964;1177;58364;-65
2024/03/30 08:02:23;;;;;;;;;9.33;9.33;;;;;28.84;26.61;101223.73;245995;1176;58437;-65
2024/03/30 08:07:26;;;;;;;;;12.00;11.00;;;;;28.86;26.45;101222.11;245984;1177;58313;-65
2024/03/30 08:12:29;;;;;;;;;9.50;9.00;;;;;28.89;26.53;101216.60;245983;1177;58436;-65
2024/03/30 08:17:32;;;;;;;;;10.00;10.00;;;;;28.92;26.48;101213.44;245911;1177;58308;-65
2024/03/30 08:22:36;;;;;;;;;11.00;9.00;;;;;28.92;26.54;101217.97;246002;1180;58698;-65
2024/03/30 08:27:39;;;;;;;;;9.50;9.50;;;;;28.91;26.50;101211.89;245982;1177;92089;-65
2024/03/30 08:32:42;;;;;;;;;11.67;10.67;;;;;28.88;26.78;101210.63;245639;1179;58284;-65
2024/03/30 08:37:45;;;;;;;;;10.00;10.00;;;;;28.84;26.74;101219.55;245963;1176;58423;-65
2024/03/30 08:42:48;;;;;;;;;8.00;8.00;;;;;28.78;26.85;101213.66;245943;1179;58364;-65
2024/03/30 08:47:51;;;;;;;;;7.67;7.67;;;;;28.70;26.89;101212.55;245996;1177;58365;-65
2024/03/30 08:52:54;;;;;;;;;9.00;9.00;;;;;28.64;27.07;101208.74;245971;1177;58811;-65
2024/03/30 08:57:57;;;;;;;;;8.67;8.67;;;;;28.59;26.96;101215.45;246034;1177;58318;-65
2024/03/30 09:03:00;;;;;;;;;10.67;10.67;;;;;28.59;27.08;101220.95;246069;1177;58364;-65
2024/03/30 09:08:03;;;;;;;;;8.67;7.33;;;;;28.59;27.08;101220.34;246059;1180;58375;-65
2024/03/30 09:13:06;;;;;;;;;11.33;9.67;;;;;28.58;27.09;101210.91;246007;1180;58398;-65
2024/03/30 09:18:10;;;;;;;;;7.33;7.33;;;;;28.56;27.01;101203.83;245970;1179;58474;-65
2024/03/30 09:23:13;;;;;;;;;10.00;10.00;;;;;28.57;27.19;101194.26;245971;1177;58382;-65
2024/03/30 09:28:16;;;;;;;;;10.00;10.00;;;;;28.57;27.24;101183.08;245957;1180;58912;-65
2024/03/30 09:33:19;;;;;;;;;9.00;9.00;;;;;28.59;27.12;101175.02;245949;1176;58360;-65
2024/03/30 09:38:22;;;;;;;;;10.33;10.33;;;;;28.63;27.21;101172.67;245627;1180;58783;-65
2024/03/30 09:43:26;;;;;;;;;8.00;7.00;;;;;28.64;27.23;101166.38;245915;1180;58722;-65
2024/03/30 09:48:31;;;;;;;;;8.67;8.00;;;;;28.70;27.01;101162.66;245667;1177;58437;-65
2024/03/30 09:53:38;;;;;;;;;9.50;7.50;;;;;28.76;26.92;101160.77;245666;1180;92802;-66
2024/03/30 09:58:42;;;;;;;;;9.50;9.50;;;;;28.85;26.82;101157.88;245740;1177;92833;-65
2024/03/30 10:03:45;;;;;;;;;8.33;8.33;;;;;28.90;26.67;101157.69;245734;1180;92508;-66
2024/03/30 10:08:48;;;;;;;;;8.00;8.00;;;;;28.95;26.80;101157.16;245738;1177;58283;-66
2024/03/30 10:13:59;;;;;;;;;8.50;8.50;;;;;28.99;26.69;101152.44;246063;1180;58370;-65
2024/03/30 10:19:11;;;;;;;;;8.25;8.25;;;;;29.03;26.62;101145.95;245780;1178;92328;-65
2024/03/30 10:24:16;;;;;;;;;9.75;9.75;;;;;29.03;26.69;101139.68;246077;1184;92511;-65
2024/03/30 10:29:20;;;;;;;;;10.25;10.25;;;;;29.03;26.65;101135.60;245760;1189;93537;-66
2024/03/30 10:34:23;;;;;;;;;10.75;9.50;;;;;29.04;26.63;101128.50;246102;1180;92237;-66
2024/03/30 10:39:29;;;;;;;;;9.33;9.33;;;;;29.01;26.71;101126.86;245723;1182;58351;-66
2024/03/30 10:44:31;;;;;;;;;7.75;7.75;;;;;29.11;26.49;101116.42;246080;1180;92511;-65
2024/03/30 10:49:34;;;;;;;;;9.00;8.00;;;;;29.24;26.34;101108.11;245732;1180;58446;-66
2024/03/30 10:54:37;;;;;;;;;8.67;8.00;;;;;29.35;26.16;101101.90;246021;1180;58342;-66
2024/03/30 10:59:45;;;;;;;;;8.00;8.00;;;;;29.37;26.12;101099.05;245751;1178;58288;-66
2024/03/30 11:04:52;;;;;;;;;10.25;8.50;;;;;29.31;26.22;101090.30;245747;1183;92712;-65
2024/03/30 11:09:57;;;;;;;;;8.50;7.75;;;;;29.27;26.39;101085.77;245704;1180;92705;-65
2024/03/30 11:15:00;;;;;;;;;10.67;9.33;;;;;29.36;26.30;101084.33;246041;1180;91930;-66
2024/03/30 11:20:21;;;;;;;;;7.50;7.50;;;;;29.48;26.06;101083.05;246039;1180;92709;-65
2024/03/30 11:25:27;;;;;;;;;8.75;8.75;;;;;29.53;25.95;101075.95;246041;1180;92417;-65
2024/03/30 11:30:59;;;;;;;;;8.75;8.75;;;;;29.59;26.13;101063.63;245746;1180;92337;-65
2024/03/30 11:36:26;;;;;;;;;10.25;9.25;;;;;29.71;25.90;101055.58;246070;1178;93103;-65
2024/03/30 11:41:31;;;;;;;;;9.00;9.00;;;;;29.81;25.82;101048.23;245717;1180;93405;-65
2024/03/30 11:46:36;;;;;;;;;8.50;7.75;;;;;29.86;25.69;101048.27;245699;1182;92973;-66
2024/03/30 11:51:40;;;;;;;;;9.25;8.25;;;;;29.91;25.43;101046.93;245769;1189;93037;-66
2024/03/30 11:56:44;;;;;;;;;9.00;9.00;;;;;29.95;25.55;101034.95;245698;1180;93612;-66
2024/03/30 12:01:46;;;;;;;;;8.25;8.25;;;;;30.00;25.44;101027.60;246093;1180;92256;-65
2024/03/30 12:06:52;;;;;;;;;10.33;8.33;;;;;29.99;25.49;101028.59;246052;1177;58291;-65
2024/03/30 12:12:17;;;;;;;;;8.00;8.00;;;;;29.96;25.49;101022.84;245782;1183;93332;-66
2024/03/30 12:17:21;;;;;;;;;7.67;7.67;;;;;30.00;25.41;101020.55;246037;1180;91293;-65
2024/03/30 12:22:24;;;;;;;;;9.50;7.75;;;;;30.12;25.37;101014.29;245727;1177;58343;-66
2024/03/30 12:27:27;;;;;;;;;7.75;7.75;;;;;30.17;25.18;101009.50;245757;1178;93055;-65
2024/03/30 12:32:30;;;;;;;;;11.00;10.00;;;;;30.17;25.58;100995.92;246027;1183;92567;-66
2024/03/30 12:37:33;;;;;;;;;7.00;7.00;;;;;30.28;25.26;100990.54;246079;1180;92363;-65
2024/03/30 12:42:36;;;;;;;;;7.67;7.67;;;;;30.43;25.12;100984.45;245747;1177;58326;-65
2024/03/30 12:47:39;;;;;;;;;8.33;8.33;;;;;30.55;24.86;100977.22;245735;1180;58533;-65
2024/03/30 12:52:43;;;;;;;;;8.50;8.50;;;;;30.68;24.79;100973.52;246071;1180;58342;-66
2024/03/30 12:57:45;;;;;;;;;7.00;7.00;;;;;30.75;24.82;100965.80;246081;1180;58342;-66
2024/03/30 13:02:55;;;;;;;;;8.67;8.00;;;;;30.77;24.44;100962.83;245745;1180;58328;-66
2024/03/30 13:08:01;;;;;;;;;10.75;9.00;;;;;30.76;24.52;100961.73;246039;1177;93237;-65
2024/03/30 13:13:04;;;;;;;;;8.25;8.25;;;;;30.74;24.60;100951.39;245718;1180;92550;-65
2024/03/30 13:18:09;;;;;;;;;8.25;8.25;;;;;30.72;24.63;100951.65;246062;1180;93555;-65
2024/03/30 13:23:14;;;;;;;;;8.00;8.00;;;;;30.69;24.55;100950.61;246066;1177;92893;-65
2024/03/30 13:28:17;;;;;;;;;7.25;7.25;;;;;30.65;24.78;100939.95;246078;1181;92852;-65
2024/03/30 13:33:20;;;;;;;;;11.67;10.00;;;;;30.61;24.81;100937.88;246098;1180;58283;-65
2024/03/30 13:38:27;;;;;;;;;8.50;8.50;;;;;30.57;24.95;100926.38;246068;1177;93122;-65
2024/03/30 13:43:30;;;;;;;;;8.00;8.00;;;;;30.53;25.05;100929.39;246085;1180;58271;-67
2024/03/30 13:48:34;;;;;;;;;8.00;8.00;;;;;30.45;25.14;100933.39;246108;1180;92753;-65
2024/03/30 13:53:37;;;;;;;;;8.67;8.67;;;;;30.24;25.57;100932.52;245784;1180;93273;-66
2024/03/30 13:58:39;;;;;;;;;8.67;8.67;;;;;30.18;25.65;100926.62;246080;1177;58379;-65
2024/03/30 14:03:42;;;;;;;;;8.00;8.00;;;;;30.13;25.47;100915.94;246095;1180;58293;-65
2024/03/30 14:08:45;;;;;;;;;9.67;6.33;;;;;30.08;25.76;100915.22;246081;1182;58366;-66
2024/03/30 14:13:48;;;;;;;;;8.00;8.00;;;;;30.07;25.58;100912.19;246049;1176;58267;-66
2024/03/30 14:18:51;;;;;;;;;9.00;9.00;;;;;30.07;25.60;100913.13;246106;1180;58560;-65
2024/03/30 14:23:54;;;;;;;;;8.00;8.00;;;;;30.17;25.60;100914.80;245776;1180;58186;-66
2024/03/30 14:28:57;;;;;;;;;7.00;7.00;;;;;30.32;25.24;100914.77;246096;1177;58440;-65
2024/03/30 14:34:00;;;;;;;;;8.33;8.33;;;;;30.38;25.08;100915.41;245998;1189;58401;-65
2024/03/30 14:39:06;;;;;;;;;9.00;8.50;;;;;30.27;25.45;100916.58;246103;1177;58346;-66
2024/03/30 14:44:09;;;;;;;;;9.33;9.33;;;;;30.12;25.64;100916.98;246082;1180;93253;-66
2024/03/30 14:49:12;;;;;;;;;10.00;10.00;;;;;29.96;25.90;100914.98;246039;1180;92943;-65
2024/03/30 14:54:15;;;;;;;;;9.33;8.33;;;;;29.82;26.11;100913.23;246070;1180;58320;-66
2024/03/30 14:59:19;;;;;;;;;7.00;7.00;;;;;29.71;25.98;100913.42;246108;1178;58284;-66
2024/03/30 15:04:22;;;;;;;;;9.00;7.25;;;;;29.60;26.28;100909.92;245773;1180;92290;-66
2024/03/30 15:09:26;;;;;;;;;7.75;7.75;;;;;29.48;26.60;100910.96;246093;1177;58258;-66
2024/03/30 15:14:29;;;;;;;;;8.25;8.25;;;;;29.35;26.76;100912.27;246091;1180;92740;-65
2024/03/30 15:19:32;;;;;;;;;8.67;8.00;;;;;29.21;27.01;100914.45;246119;1180;58274;-65
2024/03/30 15:24:34;;;;;;;;;10.00;8.00;;;;;29.08;27.03;100910.31;245779;1180;58323;-66
2024/03/30 15:32:09;;;;;;;;;8.67;8.67;;;;;28.95;27.20;100916.83;246091;1177;59058;-65
2024/03/30 15:35:00;;;;;;;;;9.33;9.33;;;;;28.85;27.35;100921.82;246112;1180;92371;-65
2024/03/30 15:40:06;;;;;;;;;6.75;6.75;;;;;28.75;27.51;100922.91;246076;1180;92075;-65
2024/03/30 15:45:09;;;;;;;;;10.50;8.00;;;;;28.66;27.70;100920.39;245761;1180;92621;-65
2024/03/30 15:50:12;;;;;;;;;7.00;7.00;;;;;28.58;27.74;100920.67;246073;1180;58219;-66
2024/03/30 15:55:14;;;;;;;;;8.33;8.33;;;;;28.51;27.91;100923.07;246074;1180;58297;-65
2024/03/30 16:00:18;;;;;;;;;9.67;9.67;;;;;28.44;27.96;100917.80;245947;1180;58361;-65
2024/03/30 16:05:21;;;;;;;;;8.75;8.75;;;;;28.38;28.17;100917.77;245635;1177;93775;-65
2024/03/30 16:10:24;;;;;;;;;7.33;7.33;;;;;28.32;28.19;100917.56;245982;1177;58387;-65
2024/03/30 16:15:28;;;;;;;;;7.00;7.00;;;;;28.27;28.35;100920.83;246066;1180;58311;-65
2024/03/30 16:20:31;;;;;;;;;7.50;7.50;;;;;28.22;28.42;100918.73;246083;1180;93188;-65
2024/03/30 16:25:34;;;;;;;;;8.33;8.33;;;;;28.17;28.41;100921.92;246085;1177;58920;-65
2024/03/30 16:30:37;;;;;;;;;8.00;8.00;;;;;28.13;28.49;100923.00;246112;1180;58346;-65
2024/03/30 16:35:45;;;;;;;;;6.25;6.25;;;;;28.08;28.64;100926.73;245806;1180;58355;-65
2024/03/30 16:40:47;;;;;;;;;8.50;6.75;;;;;28.04;28.65;100931.36;245819;1180;92723;-65
2024/03/30 16:45:53;;;;;;;;;9.33;7.33;;;;;28.00;28.69;100941.42;246099;1177;58271;-65
2024/03/30 16:51:00;;;;;;;;;8.75;7.75;;;;;27.97;28.81;100943.06;245815;1176;92603;-66
2024/03/30 16:56:06;;;;;;;;;9.25;8.25;;;;;27.93;28.78;100942.31;246171;1189;92102;-65
2024/03/30 17:01:09;;;;;;;;;10.50;7.00;;;;;27.91;28.89;100950.17;246137;1180;92891;-65
2024/03/30 17:06:12;;;;;;;;;9.33;7.33;;;;;27.88;28.92;100955.52;245814;1180;58392;-65
2024/03/30 17:11:15;;;;;;;;;8.00;8.00;;;;;27.85;28.89;100959.44;246147;1180;58353;-66
2024/03/30 17:16:19;;;;;;;;;9.00;7.00;;;;;27.82;29.04;100959.93;246105;1180;58277;-65
2024/03/30 17:21:22;;;;;;;;;9.25;8.50;;;;;27.79;28.97;100961.49;246120;1180;58335;-65
2024/03/30 17:26:24;;;;;;;;;10.67;8.33;;;;;27.77;28.95;100966.05;246114;1180;58161;-66
2024/03/30 17:31:27;;;;;;;;;6.67;6.67;;;;;27.74;29.13;100971.48;246093;1177;58299;-65
2024/03/30 17:36:30;;;;;;;;;9.00;9.00;;;;;27.72;28.97;100974.43;245816;1176;58232;-65
2024/03/30 17:41:33;;;;;;;;;7.33;7.33;;;;;27.70;29.09;100976.31;246119;1177;58328;-65
2024/03/30 17:46:37;;;;;;;;;10.25;9.25;;;;;27.67;29.12;100974.60;246096;1180;58272;-65
2024/03/30 17:51:40;;;;;;;;;8.33;8.33;;;;;27.66;29.14;100977.83;245773;1180;58216;-65
2024/03/30 17:56:42;;;;;;;;;9.67;9.00;;;;;27.63;29.25;100980.54;246125;1180;58302;-65
2024/03/30 18:01:45;;;;;;;;;9.33;9.00;;;;;27.61;29.28;100984.02;246131;1180;58282;-65
2024/03/30 18:06:48;;;;;;;;;9.00;9.00;;;;;27.59;29.35;100986.45;245814;1180;58581;-65
2024/03/30 18:11:51;;;;;;;;;10.33;9.67;;;;;27.57;29.33;100991.24;246098;1189;58145;-65
2024/03/30 18:16:54;;;;;;;;;9.33;9.33;;;;;27.55;29.33;100994.08;246111;1176;58279;-65
2024/03/30 18:21:57;;;;;;;;;10.00;10.00;;;;;27.51;29.38;100998.73;246179;1180;58228;-65
2024/03/30 18:26:59;;;;;;;;;9.00;9.00;;;;;27.50;29.44;100996.12;246142;1177;87823;-65
2024/03/30 18:32:02;;;;;;;;;11.67;9.33;;;;;27.48;29.29;100992.34;246123;1180;58239;-65
2024/03/30 18:37:05;;;;;;;;;10.67;9.00;;;;;27.46;29.43;100993.14;246115;1180;58351;-65
2024/03/30 18:42:08;;;;;;;;;9.00;8.33;;;;;27.45;29.40;100996.91;246141;1180;58369;-66
2024/03/30 18:47:11;;;;;;;;;9.00;9.00;;;;;27.43;29.39;101003.08;246110;1180;58180;-65
2024/03/30 18:52:14;;;;;;;;;10.33;9.33;;;;;27.42;29.40;100997.57;246106;1180;58275;-65
2024/03/30 18:57:17;;;;;;;;;12.25;10.25;;;;;27.40;29.37;100999.18;246121;1176;58253;-65
2024/03/30 19:02:22;;;;;;;;;9.00;8.25;;;;;27.39;29.46;101001.58;246115;1180;88063;-65
2024/03/30 19:07:25;;;;;;;;;11.25;9.25;;;;;27.36;29.52;100996.36;246120;1177;58272;-65
2024/03/30 19:12:28;;;;;;;;;8.67;8.67;;;;;27.34;29.60;100994.16;246139;1177;58123;-65
2024/03/30 19:17:31;;;;;;;;;11.67;10.00;;;;;27.32;29.47;100998.52;246107;1177;58269;-65
2024/03/30 19:22:34;;;;;;;;;12.00;9.50;;;;;27.31;29.45;100997.48;245783;1177;58622;-65
2024/03/30 19:27:37;;;;;;;;;8.00;8.00;;;;;27.30;29.26;101001.69;246095;1182;58268;-65
2024/03/30 19:32:40;;;;;;;;;8.25;8.25;;;;;27.29;29.38;101001.07;246101;1180;58311;-65
2024/03/30 19:37:46;;;;;;;;;9.33;8.00;;;;;27.29;29.24;100999.14;246123;1177;58341;-65
2024/03/30 19:42:48;;;;;;;;;12.00;10.00;;;;;27.27;29.31;100997.34;246107;1180;87825;-65
2024/03/30 19:47:52;;;;;;;;;9.00;9.00;;;;;27.27;29.33;100998.55;246116;1181;88295;-69
2024/03/30 19:52:55;;;;;;;;;9.75;9.75;;;;;27.25;29.39;100998.89;246124;1180;87860;-65
2024/03/30 19:57:58;;;;;;;;;9.00;9.00;;;;;27.23;29.28;100999.30;246138;1177;58236;-65
2024/03/30 20:03:02;;;;;;;;;11.33;9.00;;;;;27.24;29.21;101004.86;243591;1180;58425;-65
2024/03/30 20:08:08;;;;;;;;;9.50;9.50;;;;;27.23;29.31;101012.81;242129;1177;88394;-65
2024/03/30 20:13:11;;;;;;;;;8.67;8.67;;;;;27.23;29.26;101014.08;243572;1177;87303;-65
2024/03/30 20:18:13;;;;;;;;;10.00;10.00;;;;;27.22;29.21;101011.86;243780;1176;58405;-64
2024/03/30 20:23:17;;;;;;;;;10.00;9.00;;;;;27.21;29.21;101007.50;244080;1180;58425;-64
2024/03/30 20:28:20;;;;;;;;;13.00;9.33;;;;;27.20;29.25;101012.86;243784;1181;58490;-65
2024/03/30 20:33:29;;;;;;;;;11.75;10.25;;;;;27.19;29.25;101011.47;243977;1177;88082;-64
2024/03/30 20:38:32;;;;;;;;;9.25;9.25;;;;;27.18;29.30;101016.11;243955;1180;87337;-64
2024/03/30 20:43:37;;;;;;;;;8.00;8.00;;;;;27.16;29.17;101016.48;243630;1177;88403;-65
2024/03/30 20:48:44;;;;;;;;;10.00;8.50;;;;;27.16;29.18;101014.42;243646;1180;87795;-64
2024/03/30 20:53:47;;;;;;;;;10.50;8.50;;;;;27.15;29.32;101020.44;243563;1180;88559;-65
2024/03/30 20:59:54;;;;;;;;;10.00;9.50;;;;;27.14;29.44;101017.45;244036;1180;58557;-64
2024/03/30 21:04:57;;;;;;;;;9.00;9.00;;;;;27.13;29.42;101019.97;243610;1179;87190;-65
2024/03/30 21:10:42;;;;;;;;;9.00;9.00;;;;;27.12;29.50;101018.80;243306;1180;58513;-65
2024/03/30 21:15:45;;;;;;;;;10.25;9.50;;;;;27.12;29.47;101013.25;242326;1183;88519;-63
2024/03/30 21:20:48;;;;;;;;;10.00;9.33;;;;;27.11;29.60;101015.88;242996;1183;58605;-64
2024/03/30 21:26:23;;;;;;;;;10.00;10.00;;;;;27.10;29.22;101009.82;243468;1183;58523;-64
2024/03/30 21:31:27;;;;;;;;;12.00;8.00;;;;;27.09;29.57;101006.91;243155;1179;88186;-65
2024/03/30 21:37:02;;;;;;;;;8.67;8.67;;;;;27.08;29.37;101006.17;243499;1184;86907;-65
2024/03/30 21:42:21;;;;;;;;;8.50;8.50;;;;;27.07;29.51;101006.14;243264;1183;89587;-64
2024/03/30 21:47:56;;;;;;;;;9.50;9.50;;;;;27.06;29.39;101007.84;244408;1180;87630;-65
2024/03/30 21:53:08;;;;;;;;;12.00;10.00;;;;;27.05;29.42;101004.45;243953;1182;87989;-65
2024/03/30 21:58:43;;;;;;;;;10.50;10.50;;;;;27.04;29.51;101006.52;244285;1182;88719;-64
2024/03/30 22:04:01;;;;;;;;;9.00;9.00;;;;;27.03;29.51;101006.93;243965;1180;87488;-64
2024/03/30 22:09:37;;;;;;;;;9.25;9.25;;;;;27.02;29.51;101008.56;244456;1180;89000;-64
2024/03/30 22:14:46;;;;;;;;;12.00;10.50;;;;;27.00;29.38;101008.73;243812;1176;86971;-64
2024/03/30 22:20:21;;;;;;;;;9.50;9.00;;;;;27.00;29.38;101006.19;244405;1180;87824;-65
2024/03/30 22:25:37;;;;;;;;;9.00;9.00;;;;;26.99;29.60;101000.13;243876;1180;87657;-64
2024/03/30 22:31:11;;;;;;;;;10.00;8.50;;;;;26.98;29.52;100996.27;244222;1180;88637;-64
2024/03/30 22:36:46;;;;;;;;;11.00;10.00;;;;;26.97;29.56;100995.09;244393;1180;87487;-65
2024/03/30 22:41:58;;;;;;;;;9.00;9.00;;;;;26.97;29.37;100985.85;244173;1178;89021;-65
2024/03/30 22:47:36;;;;;;;;;9.00;9.00;;;;;26.96;29.45;100984.52;244758;1176;88729;-65
2024/03/30 22:52:53;;;;;;;;;15.00;12.50;;;;;26.95;29.45;100982.81;244347;1177;87948;-65
2024/03/30 22:58:28;;;;;;;;;9.00;9.00;;;;;26.94;29.36;100975.86;244759;1180;88643;-65
2024/03/30 23:03:40;;;;;;;;;9.00;9.00;;;;;26.94;29.39;100975.23;244300;1180;86966;-64
2024/03/30 23:09:16;;;;;;;;;12.75;11.25;;;;;26.93;29.53;100971.83;244855;1180;87977;-65
2024/03/30 23:14:32;;;;;;;;;7.67;7.67;;;;;26.92;29.51;100964.30;244207;1182;89000;-65
2024/03/30 23:20:44;;;;;;;;;9.00;9.00;;;;;26.92;29.46;100962.02;244609;1181;87880;-65
2024/03/30 23:25:47;;;;;;;;;11.50;11.50;;;;;26.91;29.45;100960.05;243137;1184;87875;-65
2024/03/30 23:30:50;;;;;;;;;12.50;9.00;;;;;26.91;29.40;100955.38;243238;1180;88170;-64
2024/03/30 23:36:25;;;;;;;;;11.67;10.00;;;;;26.91;29.40;100955.05;244471;1176;58231;-64
2024/03/30 23:41:30;;;;;;;;;10.00;9.00;;;;;26.90;29.43;100952.71;245113;1180;87466;-64
2024/03/30 23:46:33;;;;;;;;;10.33;10.33;;;;;26.89;29.53;100946.84;243846;1180;88300;-64
2024/03/30 23:51:45;;;;;;;;;7.50;7.50;;;;;26.89;29.54;100943.08;243389;1181;58545;-64
2024/03/30 23:57:20;;;;;;;;;9.33;8.00;;;;;26.88;29.65;100936.30;244731;1180;88059;-64
